Time;durP1;ratioP1;P1;durP2;ratioP2;P2;SDS_P1;SDS_P2;PMS_P1;PMS_P2;Temp;Humidity;BMP_temperature;BMP_pressure;BME280_temperature;BME280_humidity;BME280_pressure;Samples;Min_cycle;Max_cycle;Signal;HPM_P1;HPM_P2
2021/06/08 00:00:36;;;;;;;;;;;;;;;24.62;49.55;101684.84;2096459;28;4015;-74
2021/06/08 00:01:37;;;;;;;;;;;;;;;24.63;49.58;101686.50;2096877;28;4082;-74
2021/06/08 00:02:38;;;;;;;;;;;;;;;24.62;49.57;101687.69;2098179;28;4060;-74
2021/06/08 00:03:40;;;;;;;;;;;;;;;24.62;49.70;101687.69;2097196;28;4026;-74
2021/06/08 00:04:41;;;;;;;;;;;;;;;24.62;49.63;101685.66;2096603;28;3994;-73
2021/06/08 00:05:42;;;;;;;;;;;;;;;24.61;49.67;101683.97;2094748;28;3812;-74
2021/06/08 00:06:43;;;;;;;;;;;;;;;24.62;49.61;101684.84;2097217;28;3840;-76
2021/06/08 00:07:44;;;;;;;;;;;;;;;24.62;49.70;101690.56;2096524;28;3912;-75
2021/06/08 00:08:46;;;;;;;;;;;;;;;24.61;49.72;101683.97;2097150;28;3987;-76
2021/06/08 00:09:47;;;;;;;;;;;;;;;24.62;49.64;101693.41;2097273;28;3989;-79
2021/06/08 00:10:49;;;;;;;;;;;;;;;24.62;49.66;101696.28;2096669;28;3981;-78
2021/06/08 00:11:50;;;;;;;;;;;;;;;24.61;49.69;101697.44;2097222;28;3826;-77
2021/06/08 00:12:51;;;;;;;;;;;;;;;24.61;49.70;101692.56;2096405;28;3914;-78
2021/06/08 00:13:52;;;;;;;;;;;;;;;24.61;49.65;101686.84;2097518;28;3818;-78
2021/06/08 00:14:54;;;;;;;;;;;;;;;24.61;49.68;101698.28;2098502;28;3876;-77
2021/06/08 00:15:55;;;;;;;;;;;;;;;24.61;49.63;101697.44;2099056;28;3863;-78
2021/06/08 00:16:56;;;;;;;;;;;;;;;24.62;49.64;101693.41;2099265;28;3984;-78
2021/06/08 00:17:57;;;;;;;;;;;;;;;24.62;49.69;101693.41;2097767;28;5332;-79
2021/06/08 00:18:59;;;;;;;;;;;;;;;24.62;49.69;101693.41;2097649;28;4292;-77
2021/06/08 00:20:00;;;;;;;;;;;;;;;24.61;49.66;101691.72;2088718;28;4048;-78
2021/06/08 00:21:01;;;;;;;;;;;;;;;24.62;49.69;101699.13;2090542;28;3877;-77
2021/06/08 00:22:03;;;;;;;;;;;;;;;24.61;49.67;101695.41;2098051;28;4045;-78
2021/06/08 00:23:04;;;;;;;;;;;;;;;24.61;49.66;101694.59;2097948;28;4116;-78
2021/06/08 00:24:05;;;;;;;;;;;;;;;24.60;49.71;101693.75;2098819;28;3996;-78
2021/06/08 00:25:06;;;;;;;;;;;;;;;24.61;49.67;101700.31;2099051;28;3802;-78
2021/06/08 00:26:07;;;;;;;;;;;;;;;24.61;49.70;101701.13;2098783;28;4031;-78
2021/06/08 00:27:09;;;;;;;;;;;;;;;24.61;49.73;101701.13;2099305;28;5378;-78
2021/06/08 00:28:10;;;;;;;;;;;;;;;24.61;49.55;101694.59;2096889;28;4034;-79
2021/06/08 00:29:11;;;;;;;;;;;;;;;24.61;49.60;101698.28;2099389;28;3987;-78
2021/06/08 00:30:12;;;;;;;;;;;;;;;24.61;49.65;101698.28;2099595;28;3993;-79
2021/06/08 00:31:14;;;;;;;;;;;;;;;24.61;49.59;101697.44;2098560;28;3849;-78
2021/06/08 00:32:15;;;;;;;;;;;;;;;24.61;49.64;101697.44;2098762;28;6146;-79
2021/06/08 00:33:16;;;;;;;;;;;;;;;24.61;49.62;101698.28;2097639;28;4010;-79
2021/06/08 00:34:18;;;;;;;;;;;;;;;24.61;49.67;101695.41;2098269;28;4006;-78
2021/06/08 00:35:19;;;;;;;;;;;;;;;24.60;49.64;101692.94;2099415;28;3978;-78
2021/06/08 00:36:20;;;;;;;;;;;;;;;24.60;49.59;101693.75;2096682;28;4062;-80
2021/06/08 00:37:21;;;;;;;;;;;;;;;24.60;49.63;101696.63;2098582;28;4025;-84
2021/06/08 00:38:23;;;;;;;;;;;;;;;24.61;49.68;101691.72;2098648;28;4042;-84
2021/06/08 00:39:24;;;;;;;;;;;;;;;24.60;49.71;101687.22;2099170;28;3956;-84
2021/06/08 00:40:28;;;;;;;;;;;;;;;24.60;49.54;101690.06;2098419;28;5053;-84
2021/06/08 00:41:29;;;;;;;;;;;;;;;24.60;49.61;101693.75;2098551;28;4008;-84
2021/06/08 00:42:30;;;;;;;;;;;;;;;24.60;49.63;101688.03;2098821;28;3847;-86
2021/06/08 00:43:31;;;;;;;;;;;;;;;24.60;49.68;101692.94;2098617;28;4007;-84
2021/06/08 00:44:33;;;;;;;;;;;;;;;24.60;49.60;101690.91;2098829;28;4082;-83
2021/06/08 00:45:34;;;;;;;;;;;;;;;24.61;49.65;101694.59;2099777;28;3852;-83
2021/06/08 00:46:35;;;;;;;;;;;;;;;24.61;49.55;101691.72;2098198;28;3838;-82
2021/06/08 00:47:36;;;;;;;;;;;;;;;24.60;49.56;101693.75;2097614;28;3995;-81
2021/06/08 00:48:38;;;;;;;;;;;;;;;24.60;49.59;101690.06;2100166;28;3894;-81
2021/06/08 00:49:39;;;;;;;;;;;;;;;24.60;49.61;101690.06;2099315;28;3986;-81
2021/06/08 00:50:40;;;;;;;;;;;;;;;24.59;49.56;101692.09;2099121;28;3992;-80
2021/06/08 00:51:41;;;;;;;;;;;;;;;24.60;49.58;101690.06;2098588;28;4074;-79
2021/06/08 00:52:43;;;;;;;;;;;;;;;24.60;49.59;101695.78;2097893;28;4138;-79
2021/06/08 00:53:44;;;;;;;;;;;;;;;24.60;49.64;101692.94;2098179;28;3815;-79
2021/06/08 00:54:45;;;;;;;;;;;;;;;24.60;49.63;101692.94;2098589;28;3955;-79
2021/06/08 00:55:46;;;;;;;;;;;;;;;24.59;49.66;101682.66;2096472;28;3853;-79
2021/06/08 00:56:48;;;;;;;;;;;;;;;24.59;49.59;101688.38;2099196;28;4038;-80
2021/06/08 00:57:50;;;;;;;;;;;;;;;24.59;49.52;101688.38;2099318;28;3818;-80
2021/06/08 00:58:51;;;;;;;;;;;;;;;24.59;49.59;101688.38;2097423;28;3823;-80
2021/06/08 00:59:52;;;;;;;;;;;;;;;24.59;49.64;101682.66;2097513;28;3918;-80
2021/06/08 01:00:53;;;;;;;;;;;;;;;24.60;49.71;101692.94;2098010;28;3919;-76
2021/06/08 01:01:55;;;;;;;;;;;;;;;24.59;49.53;101689.25;2098349;28;4908;-79
2021/06/08 01:02:56;;;;;;;;;;;;;;;24.59;49.63;101685.53;2098437;28;3909;-80
2021/06/08 01:03:58;;;;;;;;;;;;;;;24.59;49.59;101691.25;2096903;28;3986;-80
2021/06/08 01:04:59;;;;;;;;;;;;;;;24.59;49.53;101694.97;2098522;28;4015;-79
2021/06/08 01:06:00;;;;;;;;;;;;;;;24.58;49.42;101693.28;2094234;28;3871;-76
2021/06/08 01:07:02;;;;;;;;;;;;;;;24.58;49.53;101690.41;2097080;28;3860;-76
2021/06/08 01:08:03;;;;;;;;;;;;;;;24.58;49.65;101690.41;2097863;28;3898;-76
2021/06/08 01:09:04;;;;;;;;;;;;;;;24.58;49.63;101687.56;2098243;28;4106;-77
2021/06/08 01:10:05;;;;;;;;;;;;;;;24.57;49.62;101685.06;2097861;28;4054;-77
2021/06/08 01:11:07;;;;;;;;;;;;;;;24.57;49.63;101694.47;2098717;28;3860;-76
2021/06/08 01:12:08;;;;;;;;;;;;;;;24.58;49.58;101693.28;2097409;28;3908;-76
2021/06/08 01:13:09;;;;;;;;;;;;;;;24.58;49.69;101683.88;2098179;28;5357;-76
2021/06/08 01:14:10;;;;;;;;;;;;;;;24.58;49.65;101684.69;2098208;28;4061;-76
2021/06/08 01:15:12;;;;;;;;;;;;;;;24.57;49.61;101682.19;2098311;28;3844;-76
2021/06/08 01:16:13;;;;;;;;;;;;;;;24.58;49.68;101686.72;2087461;28;3861;-76
2021/06/08 01:17:14;;;;;;;;;;;;;;;24.57;49.74;101685.91;2089863;28;4033;-76
2021/06/08 01:18:15;;;;;;;;;;;;;;;24.56;49.73;101683.38;2095738;28;5130;-76
2021/06/08 01:19:17;;;;;;;;;;;;;;;24.56;49.63;101684.19;2098223;28;4022;-77
2021/06/08 01:20:18;;;;;;;;;;;;;;;24.57;49.64;101685.06;2098898;28;3992;-77
2021/06/08 01:21:20;;;;;;;;;;;;;;;24.55;49.67;101679.69;2087859;28;4054;-76
2021/06/08 01:22:21;;;;;;;;;;;;;;;24.57;49.74;101682.19;2089563;28;4002;-77
2021/06/08 01:23:22;;;;;;;;;;;;;;;24.56;49.72;101689.09;2098221;28;4042;-77
2021/06/08 01:24:23;;;;;;;;;;;;;;;24.55;49.71;101682.53;2096896;28;4098;-76
2021/06/08 01:25:25;;;;;;;;;;;;;;;24.56;49.67;101687.06;2076751;28;3934;-77
2021/06/08 01:26:26;;;;;;;;;;;;;;;24.57;49.70;101682.19;2080055;28;4022;-77
2021/06/08 01:27:27;;;;;;;;;;;;;;;24.56;49.62;101686.22;2087913;28;4019;-77
2021/06/08 01:28:29;;;;;;;;;;;;;;;24.56;49.69;101680.50;2087945;28;3986;-77
2021/06/08 01:29:30;;;;;;;;;;;;;;;24.56;49.77;101677.66;2087710;28;4018;-76
2021/06/08 01:30:31;;;;;;;;;;;;;;;24.56;49.70;101680.50;2087169;28;3999;-77
2021/06/08 01:31:32;;;;;;;;;;;;;;;24.55;49.61;101682.53;2087796;28;4021;-76
2021/06/08 01:32:34;;;;;;;;;;;;;;;24.55;49.62;101687.44;2087906;28;4022;-77
2021/06/08 01:33:36;;;;;;;;;;;;;;;24.55;49.59;101678.84;2088377;28;3971;-75
2021/06/08 01:34:37;;;;;;;;;;;;;;;24.55;49.63;101681.72;2089977;28;3976;-74
2021/06/08 01:35:39;;;;;;;;;;;;;;;24.55;49.62;101681.72;2087058;28;3939;-74
2021/06/08 01:36:40;;;;;;;;;;;;;;;24.55;49.63;101681.72;2089643;28;3951;-73
2021/06/08 01:37:41;;;;;;;;;;;;;;;24.54;49.68;101682.91;2088438;28;3991;-74
2021/06/08 01:38:43;;;;;;;;;;;;;;;24.55;49.73;101678.84;2088829;28;4123;-73
2021/06/08 01:39:46;;;;;;;;;;;;;;;24.54;49.61;101680.06;2088894;28;3841;-74
2021/06/08 01:40:47;;;;;;;;;;;;;;;24.54;49.67;101678.03;2087755;28;3981;-74
2021/06/08 01:41:49;;;;;;;;;;;;;;;24.53;49.67;101678.38;2089410;28;3988;-73
2021/06/08 01:42:50;;;;;;;;;;;;;;;24.53;49.64;101667.75;2090199;28;3873;-73
2021/06/08 01:43:51;;;;;;;;;;;;;;;24.53;49.63;101673.47;2089215;28;4023;-73
2021/06/08 01:44:52;;;;;;;;;;;;;;;24.54;49.62;101674.34;2090114;28;3792;-73
2021/06/08 01:45:54;;;;;;;;;;;;;;;24.53;49.54;101670.63;2089203;28;3869;-73
2021/06/08 01:46:55;;;;;;;;;;;;;;;24.54;49.62;101671.47;2089247;28;3939;-73
2021/06/08 01:47:56;;;;;;;;;;;;;;;24.53;49.49;101672.66;2089338;28;4128;-75
2021/06/08 01:48:57;;;;;;;;;;;;;;;24.52;49.58;101668.13;2089689;28;4372;-74
2021/06/08 01:49:59;;;;;;;;;;;;;;;24.52;49.59;101671.81;2089125;28;3842;-74
2021/06/08 01:51:01;;;;;;;;;;;;;;;24.53;49.60;101664.06;2089556;28;3843;-75
2021/06/08 01:52:02;;;;;;;;;;;;;;;24.52;49.46;101659.53;2089867;28;4018;-75
2021/06/08 01:53:03;;;;;;;;;;;;;;;24.52;49.55;101666.09;2089296;28;4379;-75
2021/06/08 01:54:04;;;;;;;;;;;;;;;24.52;49.46;101671.00;2090273;28;3983;-75
2021/06/08 01:55:05;;;;;;;;;;;;;;;24.50;49.47;101665.63;2089333;28;4422;-75
2021/06/08 01:56:07;;;;;;;;;;;;;;;24.51;49.45;101657.84;2089282;28;5383;-74
2021/06/08 01:57:08;;;;;;;;;;;;;;;24.51;49.53;101663.56;2089754;28;3966;-75
2021/06/08 01:58:09;;;;;;;;;;;;;;;24.52;49.54;101662.41;2088471;28;4398;-77
2021/06/08 01:59:10;;;;;;;;;;;;;;;24.51;49.43;101655.00;2089248;28;3751;-77
2021/06/08 02:00:12;;;;;;;;;;;;;;;24.50;49.46;101656.19;2089479;28;4314;-77
2021/06/08 02:01:13;;;;;;;;;;;;;;;24.50;49.49;101662.75;2087392;28;4322;-78
2021/06/08 02:02:14;;;;;;;;;;;;;;;24.52;49.41;101665.28;2078773;28;4054;-78
2021/06/08 02:03:15;;;;;;;;;;;;;;;24.50;49.37;101665.63;2080583;28;4280;-77
2021/06/08 02:04:16;;;;;;;;;;;;;;;24.51;49.33;101655.00;2080386;28;4417;-77
2021/06/08 02:05:18;;;;;;;;;;;;;;;24.50;49.28;101661.91;2080385;28;3984;-77
2021/06/08 02:06:19;;;;;;;;;;;;;;;24.50;49.32;101662.75;2090059;28;4195;-78
2021/06/08 02:07:20;;;;;;;;;;;;;;;24.50;49.31;101668.47;2089855;28;3887;-82
2021/06/08 02:08:21;;;;;;;;;;;;;;;24.50;49.30;101664.78;2089800;28;4031;-81
2021/06/08 02:09:23;;;;;;;;;;;;;;;24.50;49.30;101659.88;2088680;28;3990;-81
2021/06/08 02:10:26;;;;;;;;;;;;;;;24.49;49.30;101661.09;2089184;28;4531;-81
2021/06/08 02:11:27;;;;;;;;;;;;;;;24.49;49.28;101663.94;2089224;28;3998;-81
2021/06/08 02:12:28;;;;;;;;;;;;;;;24.49;49.37;101660.25;2089191;28;4391;-81
2021/06/08 02:13:30;;;;;;;;;;;;;;;24.49;49.29;101668.84;2089283;28;4325;-80
2021/06/08 02:14:31;;;;;;;;;;;;;;;24.49;49.30;101669.69;2089851;28;4348;-80
2021/06/08 02:15:32;;;;;;;;;;;;;;;24.49;49.32;101666.00;2089211;28;3879;-80
2021/06/08 02:16:33;;;;;;;;;;;;;;;24.49;49.30;101666.00;2089802;28;3979;-80
2021/06/08 02:17:35;;;;;;;;;;;;;;;24.48;49.21;101670.03;2089154;28;4031;-80
2021/06/08 02:18:36;;;;;;;;;;;;;;;24.48;49.23;101670.88;2089187;28;4365;-77
2021/06/08 02:19:37;;;;;;;;;;;;;;;24.48;49.17;101675.75;2090054;28;4311;-76
2021/06/08 02:20:38;;;;;;;;;;;;;;;24.49;49.23;101666.00;2088835;28;4346;-75
2021/06/08 02:21:40;;;;;;;;;;;;;;;24.49;49.19;101672.53;2089370;28;3802;-76
2021/06/08 02:22:41;;;;;;;;;;;;;;;24.49;49.20;101677.44;2088047;28;4012;-76
2021/06/08 02:23:42;;;;;;;;;;;;;;;24.48;49.28;101672.88;2080301;28;4284;-76
2021/06/08 02:24:43;;;;;;;;;;;;;;;24.49;49.20;101677.44;2080490;28;4398;-75
2021/06/08 02:25:45;;;;;;;;;;;;;;;24.49;49.19;101674.56;2089061;28;3981;-80
2021/06/08 02:26:46;;;;;;;;;;;;;;;24.49;49.20;101678.25;2089735;28;3987;-81
2021/06/08 02:27:47;;;;;;;;;;;;;;;24.49;49.19;101683.16;2089433;28;4302;-81
2021/06/08 02:28:49;;;;;;;;;;;;;;;24.49;49.26;101677.44;2087605;28;4021;-77
2021/06/08 02:29:50;;;;;;;;;;;;;;;24.49;49.24;101671.72;2089551;28;3959;-75
2021/06/08 02:30:52;;;;;;;;;;;;;;;24.49;49.25;101677.44;2089477;28;3775;-76
2021/06/08 02:31:53;;;;;;;;;;;;;;;24.50;49.24;101676.22;2089224;28;5219;-73
2021/06/08 02:32:54;;;;;;;;;;;;;;;24.49;49.23;101677.44;2090112;28;4012;-75
2021/06/08 02:33:56;;;;;;;;;;;;;;;24.49;49.19;101677.44;2088221;28;3781;-76
2021/06/08 02:34:57;;;;;;;;;;;;;;;24.48;49.23;101672.88;2088572;28;4165;-76
2021/06/08 02:35:58;;;;;;;;;;;;;;;24.48;49.33;101670.88;2089602;28;3872;-75
2021/06/08 02:36:59;;;;;;;;;;;;;;;24.48;49.26;101678.59;2089152;28;4021;-75
2021/06/08 02:38:00;;;;;;;;;;;;;;;24.48;49.24;101675.75;2089060;28;3873;-76
2021/06/08 02:39:02;;;;;;;;;;;;;;;24.48;49.20;101681.47;2088063;28;4081;-76
2021/06/08 02:40:03;;;;;;;;;;;;;;;24.47;49.25;101674.91;2089133;28;3987;-76
2021/06/08 02:41:04;;;;;;;;;;;;;;;24.47;49.23;101677.78;2090350;28;3996;-76
2021/06/08 02:42:06;;;;;;;;;;;;;;;24.47;49.30;101674.09;2089284;28;3848;-76
2021/06/08 02:43:07;;;;;;;;;;;;;;;24.48;49.26;101684.31;2090111;28;5070;-76
2021/06/08 02:44:08;;;;;;;;;;;;;;;24.47;49.25;101674.91;2088184;28;3883;-76
2021/06/08 02:45:09;;;;;;;;;;;;;;;24.47;49.36;101677.78;2088601;28;4186;-76
2021/06/08 02:46:10;;;;;;;;;;;;;;;24.46;49.32;101672.44;2089125;28;4024;-76
2021/06/08 02:47:12;;;;;;;;;;;;;;;24.46;49.25;101673.25;2088310;28;4231;-76
2021/06/08 02:48:14;;;;;;;;;;;;;;;24.46;49.26;101678.97;2089568;28;4004;-76
2021/06/08 02:49:15;;;;;;;;;;;;;;;24.46;49.23;101678.97;2088556;28;5063;-77
2021/06/08 02:50:16;;;;;;;;;;;;;;;24.46;49.30;101676.13;2088514;28;3881;-76
2021/06/08 02:51:17;;;;;;;;;;;;;;;24.47;49.28;101685.53;2088605;28;3857;-77
2021/06/08 02:52:19;;;;;;;;;;;;;;;24.46;49.27;101678.16;2088681;28;3853;-77
2021/06/08 02:53:21;;;;;;;;;;;;;;;24.47;49.32;101676.94;2089751;28;3845;-76
2021/06/08 02:54:22;;;;;;;;;;;;;;;24.46;49.33;101681.84;2089454;28;3924;-76
2021/06/08 02:55:27;;;;;;;;;;;;;;;24.46;49.11;101684.69;2088772;28;3984;-76
2021/06/08 02:56:29;;;;;;;;;;;;;;;24.46;49.22;101687.56;2087414;28;4093;-76
2021/06/08 02:57:30;;;;;;;;;;;;;;;24.45;49.30;101688.72;2087654;28;5124;-75
2021/06/08 02:58:31;;;;;;;;;;;;;;;24.44;49.34;101687.91;2089207;28;4086;-76
2021/06/08 02:59:33;;;;;;;;;;;;;;;24.46;49.29;101683.88;2088454;28;4165;-76
2021/06/08 03:00:34;;;;;;;;;;;;;;;24.45;49.35;101683.00;2088647;28;4095;-76
2021/06/08 03:01:35;;;;;;;;;;;;;;;24.44;49.29;101690.75;2088827;28;3757;-76
2021/06/08 03:02:36;;;;;;;;;;;;;;;24.44;49.32;101689.94;2089077;28;4060;-76
2021/06/08 03:03:38;;;;;;;;;;;;;;;24.44;49.28;101689.94;2089233;28;3997;-77
2021/06/08 03:04:39;;;;;;;;;;;;;;;24.44;49.37;101690.75;2088169;28;5426;-75
2021/06/08 03:05:40;;;;;;;;;;;;;;;24.44;49.32;101693.63;2087733;28;3864;-76
2021/06/08 03:06:42;;;;;;;;;;;;;;;24.43;49.42;101691.97;2088543;28;4006;-77
2021/06/08 03:07:44;;;;;;;;;;;;;;;24.44;49.34;101689.94;2088691;28;3984;-76
2021/06/08 03:08:45;;;;;;;;;;;;;;;24.44;49.41;101689.94;2089141;28;4009;-75
2021/06/08 03:09:46;;;;;;;;;;;;;;;24.44;49.37;101687.06;2089275;28;5042;-77
2021/06/08 03:10:48;;;;;;;;;;;;;;;24.44;49.41;101690.75;2088561;28;3839;-76
2021/06/08 03:11:49;;;;;;;;;;;;;;;24.43;49.29;101691.97;2088347;28;3812;-75
2021/06/08 03:12:52;;;;;;;;;;;;;;;24.44;49.44;101687.06;2088766;28;5105;-75
2021/06/08 03:13:53;;;;;;;;;;;;;;;24.44;49.32;101682.19;2088219;28;4000;-74
2021/06/08 03:14:54;;;;;;;;;;;;;;;24.43;49.33;101691.97;2089050;28;3971;-73
2021/06/08 03:15:55;;;;;;;;;;;;;;;24.43;49.39;101691.09;2088939;28;3989;-74
2021/06/08 03:16:57;;;;;;;;;;;;;;;24.43;49.36;101689.09;2087665;28;4155;-74
2021/06/08 03:17:58;;;;;;;;;;;;;;;24.42;49.27;101693.09;2088575;28;4006;-73
2021/06/08 03:18:59;;;;;;;;;;;;;;;24.42;49.31;101695.97;2088812;28;4015;-73
2021/06/08 03:20:00;;;;;;;;;;;;;;;24.42;49.40;101690.25;2088610;28;4031;-73
2021/06/08 03:21:02;;;;;;;;;;;;;;;24.43;49.42;101691.09;2089196;28;4114;-74
2021/06/08 03:22:03;;;;;;;;;;;;;;;24.41;49.35;101694.31;2088340;28;3984;-73
2021/06/08 03:23:04;;;;;;;;;;;;;;;24.42;49.38;101695.13;2089244;28;3868;-73
2021/06/08 03:24:05;;;;;;;;;;;;;;;24.42;49.44;101698.81;2088823;28;4031;-73
2021/06/08 03:25:07;;;;;;;;;;;;;;;24.42;49.36;101698.00;2092523;28;4033;-73
2021/06/08 03:26:08;;;;;;;;;;;;;;;24.42;49.41;101693.09;2097522;28;4101;-73
2021/06/08 03:27:09;;;;;;;;;;;;;;;24.43;49.50;101702.53;2096050;28;4008;-74
2021/06/08 03:28:10;;;;;;;;;;;;;;;24.42;49.44;101695.13;2097698;28;3849;-73
2021/06/08 03:29:11;;;;;;;;;;;;;;;24.42;49.51;101695.97;2096876;28;3990;-73
2021/06/08 03:30:13;;;;;;;;;;;;;;;24.42;49.41;101701.69;2096544;28;4035;-74
2021/06/08 03:31:14;;;;;;;;;;;;;;;24.42;49.38;101698.81;2096387;28;4146;-73
2021/06/08 03:32:15;;;;;;;;;;;;;;;24.42;49.51;101698.00;2096239;28;4054;-74
2021/06/08 03:33:16;;;;;;;;;;;;;;;24.42;49.50;101701.69;2095714;28;4034;-73
2021/06/08 03:34:18;;;;;;;;;;;;;;;24.42;49.26;101709.44;2084820;28;4007;-74
2021/06/08 03:35:19;;;;;;;;;;;;;;;24.42;49.37;101709.44;2083513;28;3938;-75
2021/06/08 03:36:20;;;;;;;;;;;;;;;24.41;49.47;101702.88;2097702;28;3938;-75
2021/06/08 03:37:21;;;;;;;;;;;;;;;24.42;49.47;101704.53;2095829;28;4152;-75
2021/06/08 03:38:23;;;;;;;;;;;;;;;24.41;49.44;101702.06;2097264;28;3871;-76
2021/06/08 03:39:24;;;;;;;;;;;;;;;24.42;49.45;101712.31;2095044;28;6120;-75
2021/06/08 03:40:25;;;;;;;;;;;;;;;24.42;49.46;101704.53;2096730;28;3994;-75
2021/06/08 03:41:26;;;;;;;;;;;;;;;24.41;49.44;101711.47;2097729;28;3805;-75
2021/06/08 03:42:27;;;;;;;;;;;;;;;24.42;49.45;101700.84;2097792;28;3972;-76
2021/06/08 03:43:29;;;;;;;;;;;;;;;24.42;49.48;101704.53;2097040;28;3851;-75
2021/06/08 03:44:30;;;;;;;;;;;;;;;24.42;49.51;101701.69;2097080;28;4020;-76
2021/06/08 03:45:31;;;;;;;;;;;;;;;24.42;49.55;101704.53;2097468;28;3967;-76
2021/06/08 03:46:34;;;;;;;;;;;;;;;24.41;49.49;101705.75;2094765;28;4058;-77
2021/06/08 03:47:35;;;;;;;;;;;;;;;24.42;49.52;101701.69;2096067;28;4002;-76
2021/06/08 03:48:37;;;;;;;;;;;;;;;24.42;49.47;101707.41;2096296;28;4082;-75
2021/06/08 03:49:38;;;;;;;;;;;;;;;24.41;49.54;101700.03;2096661;28;3991;-75
2021/06/08 03:50:39;;;;;;;;;;;;;;;24.40;49.55;101701.22;2097643;28;3968;-76
2021/06/08 03:51:40;;;;;;;;;;;;;;;24.40;49.56;101700.41;2097381;28;3824;-75
2021/06/08 03:52:42;;;;;;;;;;;;;;;24.40;49.53;101692.66;2096900;28;4003;-75
2021/06/08 03:53:43;;;;;;;;;;;;;;;24.40;49.49;101704.09;2097467;28;4266;-76
2021/06/08 03:54:45;;;;;;;;;;;;;;;24.41;49.53;101697.16;2097035;28;3949;-75
2021/06/08 03:55:47;;;;;;;;;;;;;;;24.39;49.62;101699.53;2097292;28;3987;-77
2021/06/08 03:56:49;;;;;;;;;;;;;;;24.40;49.54;101694.69;2097064;28;3957;-79
2021/06/08 03:57:52;;;;;;;;;;;;;;;24.40;49.50;101704.09;2095956;28;3961;-75
2021/06/08 03:58:54;;;;;;;;;;;;;;;24.40;49.51;101703.25;2096657;28;5196;-77
2021/06/08 03:59:55;;;;;;;;;;;;;;;24.40;49.52;101703.25;2098010;28;3986;-75
2021/06/08 04:00:58;;;;;;;;;;;;;;;24.40;49.59;101697.53;2096933;28;3880;-78
2021/06/08 04:02:00;;;;;;;;;;;;;;;24.40;49.60;101701.22;2096913;28;4048;-78
2021/06/08 04:03:01;;;;;;;;;;;;;;;24.40;49.57;101704.09;2097041;28;4085;-78
2021/06/08 04:04:02;;;;;;;;;;;;;;;24.40;49.48;101709.81;2095556;28;3996;-77
2021/06/08 04:05:03;;;;;;;;;;;;;;;24.40;49.49;101698.38;2094541;28;4098;-78
2021/06/08 04:06:05;;;;;;;;;;;;;;;24.40;49.59;101701.22;2097302;28;4051;-77
2021/06/08 04:07:06;;;;;;;;;;;;;;;24.40;49.53;101706.94;2096773;28;3765;-70
2021/06/08 04:08:07;;;;;;;;;;;;;;;24.40;49.53;101712.66;2097603;28;3848;-71
2021/06/08 04:09:08;;;;;;;;;;;;;;;24.40;49.56;101711.84;2097033;28;4016;-70
2021/06/08 04:10:10;;;;;;;;;;;;;;;24.39;49.49;101708.13;2095561;28;3901;-71
2021/06/08 04:11:11;;;;;;;;;;;;;;;24.40;49.50;101708.97;2084633;28;4172;-71
2021/06/08 04:12:12;;;;;;;;;;;;;;;24.39;49.64;101713.84;2084921;28;5120;-70
2021/06/08 04:13:13;;;;;;;;;;;;;;;24.39;49.58;101710.16;2096662;28;3859;-71
2021/06/08 04:14:15;;;;;;;;;;;;;;;24.39;49.62;101708.13;2097025;28;4044;-72
2021/06/08 04:15:16;;;;;;;;;;;;;;;24.39;49.52;101713.84;2094798;28;4024;-69
2021/06/08 04:16:17;;;;;;;;;;;;;;;24.39;49.53;101713.84;2096007;28;3986;-71
2021/06/08 04:17:18;;;;;;;;;;;;;;;24.38;49.56;101712.19;2097073;28;4022;-69
2021/06/08 04:18:20;;;;;;;;;;;;;;;24.38;49.61;101712.19;2096904;28;4191;-70
2021/06/08 04:19:22;;;;;;;;;;;;;;;24.39;49.63;101707.28;2095897;28;3990;-70
2021/06/08 04:20:23;;;;;;;;;;;;;;;24.39;49.56;101705.25;2096798;28;4066;-71
2021/06/08 04:21:24;;;;;;;;;;;;;;;24.38;49.67;101705.63;2094682;28;4018;-71
2021/06/08 04:22:26;;;;;;;;;;;;;;;24.38;49.59;101715.03;2096246;28;4013;-70
2021/06/08 04:23:27;;;;;;;;;;;;;;;24.39;49.73;101701.56;2095342;28;3979;-70
2021/06/08 04:24:28;;;;;;;;;;;;;;;24.38;49.69;101705.63;2096526;28;4176;-70
2021/06/08 04:25:29;;;;;;;;;;;;;;;24.38;49.71;101712.19;2095031;28;3926;-71
2021/06/08 04:26:30;;;;;;;;;;;;;;;24.37;49.75;101701.94;2096861;28;4013;-75
2021/06/08 04:27:32;;;;;;;;;;;;;;;24.38;49.78;101708.50;2096811;28;3998;-74
2021/06/08 04:28:33;;;;;;;;;;;;;;;24.38;49.80;101717.91;2095304;28;4014;-74
2021/06/08 04:29:34;;;;;;;;;;;;;;;24.38;49.87;101705.63;2096344;28;4149;-73
2021/06/08 04:30:35;;;;;;;;;;;;;;;24.38;49.80;101717.06;2095601;28;4039;-76
2021/06/08 04:31:37;;;;;;;;;;;;;;;24.37;49.86;101707.66;2095591;28;4033;-76
2021/06/08 04:32:38;;;;;;;;;;;;;;;24.38;49.79;101717.91;2096719;28;4035;-77
2021/06/08 04:33:39;;;;;;;;;;;;;;;24.38;49.86;101712.19;2092268;28;3991;-77
2021/06/08 04:34:40;;;;;;;;;;;;;;;24.39;49.93;101721.59;2087925;28;4024;-77
2021/06/08 04:35:43;;;;;;;;;;;;;;;24.38;49.91;101717.06;2088059;28;3805;-77
2021/06/08 04:36:45;;;;;;;;;;;;;;;24.38;49.91;101715.03;2097076;28;5046;-77
2021/06/08 04:37:46;;;;;;;;;;;;;;;24.39;49.93;101713.00;2096191;28;5455;-77
2021/06/08 04:38:48;;;;;;;;;;;;;;;24.39;49.87;101718.72;2097016;28;3955;-76
2021/06/08 04:39:49;;;;;;;;;;;;;;;24.38;50.05;101714.22;2094522;28;5174;-75
2021/06/08 04:40:50;;;;;;;;;;;;;;;24.38;49.96;101709.31;2095543;28;5041;-76
2021/06/08 04:41:52;;;;;;;;;;;;;;;24.39;50.21;101716.69;2097408;28;3894;-74
2021/06/08 04:42:53;;;;;;;;;;;;;;;24.40;50.17;101721.25;2097291;28;3912;-76
2021/06/08 04:43:54;;;;;;;;;;;;;;;24.40;50.26;101724.09;2096489;28;4007;-74
2021/06/08 04:44:55;;;;;;;;;;;;;;;24.40;50.27;101726.16;2097385;28;4023;-77
2021/06/08 04:45:56;;;;;;;;;;;;;;;24.40;50.36;101726.97;2096657;28;4037;-77
2021/06/08 04:46:58;;;;;;;;;;;;;;;24.40;50.30;101729.84;2096880;28;5018;-77
2021/06/08 04:47:59;;;;;;;;;;;;;;;24.40;50.29;101723.28;2096680;28;3859;-76
2021/06/08 04:49:00;;;;;;;;;;;;;;;24.40;50.30;101726.16;2096172;28;4027;-77
2021/06/08 04:50:01;;;;;;;;;;;;;;;24.40;50.36;101724.09;2097871;28;4015;-79
2021/06/08 04:51:03;;;;;;;;;;;;;;;24.40;50.50;101724.09;2097304;28;5226;-75
2021/06/08 04:52:04;;;;;;;;;;;;;;;24.40;50.64;101712.66;2096965;28;3903;-75
2021/06/08 04:53:05;;;;;;;;;;;;;;;24.40;50.43;101715.53;2096524;28;4047;-78
2021/06/08 04:54:06;;;;;;;;;;;;;;;24.41;50.50;101722.09;2097168;28;3998;-78
2021/06/08 04:55:08;;;;;;;;;;;;;;;24.40;50.42;101726.97;2097055;28;3855;-78
2021/06/08 04:56:09;;;;;;;;;;;;;;;24.41;50.48;101722.09;2097011;28;3882;-78
2021/06/08 04:57:10;;;;;;;;;;;;;;;24.40;50.48;101720.41;2097040;28;3998;-78
2021/06/08 04:58:11;;;;;;;;;;;;;;;24.40;50.45;101718.38;2096760;28;3869;-78
2021/06/08 04:59:12;;;;;;;;;;;;;;;24.40;50.50;101721.25;2097078;28;3992;-77
2021/06/08 05:00:14;;;;;;;;;;;;;;;24.41;50.59;101727.81;2098725;28;4096;-78
2021/06/08 05:01:16;;;;;;;;;;;;;;;24.40;50.56;101726.16;2097323;28;4176;-75
2021/06/08 05:02:17;;;;;;;;;;;;;;;24.40;50.48;101726.97;2097642;28;4153;-73
2021/06/08 05:03:19;;;;;;;;;;;;;;;24.40;50.48;101732.69;2098586;28;3950;-72
2021/06/08 05:04:20;;;;;;;;;;;;;;;24.40;50.44;101731.88;2097754;28;4016;-73
2021/06/08 05:05:21;;;;;;;;;;;;;;;24.39;50.51;101722.41;2098671;28;4073;-74
2021/06/08 05:06:22;;;;;;;;;;;;;;;24.41;50.48;101731.50;2098852;28;3980;-73
2021/06/08 05:07:24;;;;;;;;;;;;;;;24.40;50.45;101726.97;2096877;28;3742;-73
2021/06/08 05:08:25;;;;;;;;;;;;;;;24.40;50.48;101729.84;2098350;28;4607;-73
2021/06/08 05:09:26;;;;;;;;;;;;;;;24.40;50.51;101726.97;2098002;28;3839;-73
2021/06/08 05:10:27;;;;;;;;;;;;;;;24.39;50.62;101733.88;2097960;28;4016;-73
2021/06/08 05:11:28;;;;;;;;;;;;;;;24.40;50.45;101729.84;2098490;28;4014;-73
2021/06/08 05:12:30;;;;;;;;;;;;;;;24.40;50.61;101732.69;2098778;28;3968;-69
2021/06/08 05:13:31;;;;;;;;;;;;;;;24.41;50.59;101734.34;2098283;28;4298;-72
2021/06/08 05:14:32;;;;;;;;;;;;;;;24.41;50.64;101725.78;2097856;28;4008;-73
2021/06/08 05:15:34;;;;;;;;;;;;;;;24.41;50.59;101728.63;2097910;28;3985;-75
2021/06/08 05:16:38;;;;;;;;;;;;;;;24.40;50.58;101729.84;2098097;28;4009;-75
2021/06/08 05:17:40;;;;;;;;;;;;;;;24.40;50.69;101732.69;2098455;28;3961;-74
2021/06/08 05:18:41;;;;;;;;;;;;;;;24.41;50.63;101728.63;2098818;28;4040;-71
2021/06/08 05:19:42;;;;;;;;;;;;;;;24.40;50.69;101729.84;2096985;28;3981;-73